METAR Data
IDs: Format: Raw Decoded Include TAF

Data at: 0949 UTC 18 Jan 2022

ENVA 180920Z 21004KT 170V250 9999 -DZ FEW008 SCT026 BKN036 05/03 Q1015 TEMPO 25015G25KT 4000 RA BKN012 RMK WIND 670FT 22009KT